シャルル・ド・ゴール国際空港(パリ)の過去48時間の天気

シャルル・ド・ゴール国際空港(パリ) (Paris-Aeroport Charles De Gaulle)

現在時刻: 8/4 12:43 CEST (8/4 10:43 UTC) 以下の時間は現地時間です。

過去48時間のMETAR気象情報
時間 風向 風速(m/s) 視程 気温(℃) 湿度(%) 気圧(hPa) 天気現象
4 12:30 西 2 10km以上 21 46 1019
4 12:00 不定 2 10km以上 21 46 1019
4 11:30 不定 1 10km以上 21 49 1019
4 11:00 北東 2 10km以上 20 56 1019
4 10:30 不定 2 10km以上 19 60 1019
4 10:00 不定 2 10km以上 18 64 1019
4 09:30 不定 1 10km以上 17 72 1019
4 09:00 不定 2 10km以上 16 77 1019
4 08:30 西北西 2 10km以上 14 82 1019
4 08:00 西北西 2 10km以上 13 88 1018
4 07:30 西北西 2 10km以上 13 88 1018
4 07:00 北西 2 10km以上 12 88 1018
4 06:30 北北東 1 10km以上 12 94 1018
4 06:00 北北西 1 10km以上 11 94 1018
4 05:30 北西 2 10km以上 12 88 1017
4 05:00 北北西 2 10km以上 12 88 1017
4 04:30 3 10km以上 13 88 1017
4 04:00 3 10km以上 13 88 1017
4 03:30 北北西 2 10km以上 13 82 1017
4 03:00 北北西 2 10km以上 13 82 1018
4 02:30 北北西 2 10km以上 13 82 1018
4 02:00 北北西 3 10km以上 13 82 1017
4 01:30 北北西 3 10km以上 14 77 1018
4 01:00 北北西 3 10km以上 15 72 1017
4 00:30 北北西 4 10km以上 15 72 1017
4 00:00 北北西 4 10km以上 15 77 1017
3 23:30 北西 3 10km以上 15 72 1017
3 23:00 北西 3 10km以上 15 72 1017
3 22:30 北北西 3 10km以上 16 72 1016
3 22:00 北北西 3 10km以上 16 72 1016
3 21:30 3 10km以上 17 68 1016
3 21:00 4 10km以上 18 60 1016
3 20:30 5 10km以上 19 56 1015
3 20:00 6 10km以上 19 56 1015
3 19:30 8 10km以上 19 56 1015 周辺でしゅう雨
3 19:00 8 10km以上 19 64 1015 周辺でしゅう雨
3 18:30 7 10km以上 20 60 1014 周辺でしゅう雨
3 18:00 5 10km以上 21 49 1014 周辺でしゅう雨
3 17:30 北北西 7 10km以上 22 41 1014 周辺でしゅう雨
3 17:00 北西 7 10km以上 23 41 1014 周辺でしゅう雨
3 16:30 西北西 5 10km以上 22 46 1014 周辺でしゅう雨
3 16:00 北北西 4 10km以上 21 49 1014
3 15:30 北西 5 10km以上 21 49 1014
3 15:00 西北西 7 10km以上 21 53 1015
3 14:30 西 4 10km以上 19 68 1015
3 14:00 西北西 4 10km以上 17 83 1015 弱いしゅう雨
3 13:49 西北西 5 10km以上 17 77 1015 弱いしゅう雨
3 13:30 西 6 8000m 21 53 1015 弱いしゅう雨
3 13:00 西北西 6 10km以上 19 60 1015
3 12:30 西 7 10km以上 21 49 1015
3 12:00 西北西 6 10km以上 20 53 1015
3 11:30 西 6 10km以上 19 60 1015
3 11:00 西北西 5 10km以上 19 60 1016
3 10:30 西 5 10km以上 18 64 1016
3 10:00 西 5 10km以上 17 72 1016
3 09:30 西 5 10km以上 17 68 1016
3 09:00 西南西 4 10km以上 17 68 1016
3 08:30 西南西 3 10km以上 16 72 1016
3 08:00 南西 2 10km以上 16 68 1016
3 07:30 南西 2 10km以上 15 67 1016
3 07:00 西北西 1 10km以上 15 67 1016
3 06:30 西北西 2 10km以上 15 67 1016
3 06:00 西 2 10km以上 15 67 1016
3 05:30 西北西 2 10km以上 15 67 1016
3 05:00 西 1 10km以上 15 67 1016
3 04:30 西 2 10km以上 15 67 1016
3 04:00 西 2 10km以上 15 67 1016
3 03:30 北西 2 10km以上 14 72 1016
3 03:00 北西 3 10km以上 15 67 1016
3 02:30 西北西 1 10km以上 15 63 1017
3 02:00 北北東 2 10km以上 15 63 1017
3 01:30 2 10km以上 15 63 1017
3 01:00 3 10km以上 16 59 1017
3 00:30 3 10km以上 16 59 1017
3 00:00 3 10km以上 17 59 1017
2 23:30 北北西 3 10km以上 17 59 1017
2 23:00 北北西 3 10km以上 18 56 1017
2 22:30 北北西 3 10km以上 19 52 1017
2 22:00 北西 4 10km以上 19 49 1017
2 21:30 北西 4 10km以上 20 46 1017
2 21:00 北西 5 10km以上 21 43 1017
2 20:30 北北西 6 10km以上 22 43 1017
2 20:00 北北西 6 10km以上 22 41 1017
2 19:30 北西 5 10km以上 24 36 1017
2 19:00 西北西 6 10km以上 24 38 1016
2 18:30 西北西 6 10km以上 24 38 1017
2 18:00 北北西 6 10km以上 24 38 1017
2 17:30 北西 5 10km以上 24 38 1017
2 17:00 北北西 6 10km以上 24 38 1017
2 16:30 北西 6 10km以上 24 38 1017
2 16:00 西北西 4 10km以上 24 38 1017
2 15:30 北西 5 10km以上 24 38 1017
2 15:00 北西 5 10km以上 24 38 1018
2 14:30 北西 5 10km以上 23 38 1018
2 14:00 北西 5 10km以上 22 43 1018
2 13:30 北西 5 10km以上 22 46 1018
2 13:00 北北西 6 10km以上 22 46 1018
LFPG 041030Z 27004KT 260V020 9999 FEW046 21/09 Q1019 NOSIG
LFPG 041000Z VRB04KT 9999 FEW041 21/09 Q1019 NOSIG
LFPG 040930Z VRB02KT 9999 FEW043 21/10 Q1019 NOSIG
LFPG 040900Z 05003KT 310V120 9999 FEW033 20/11 Q1019 NOSIG
LFPG 040830Z VRB03KT CAVOK 19/11 Q1019 NOSIG
LFPG 040800Z VRB03KT CAVOK 18/11 Q1019 NOSIG
LFPG 040730Z VRB02KT CAVOK 17/12 Q1019 NOSIG
LFPG 040700Z VRB03KT CAVOK 16/12 Q1019 NOSIG
LFPG 040630Z 30004KT CAVOK 14/11 Q1019 NOSIG
LFPG 040600Z 29003KT CAVOK 13/11 Q1018 NOSIG
LFPG 040530Z 29004KT CAVOK 13/11 Q1018 NOSIG
LFPG 040500Z 31004KT CAVOK 12/10 Q1018
LFPG 040430Z 02002KT CAVOK 12/11 Q1018
LFPG 040400Z 33001KT CAVOK 11/10 Q1018
LFPG 040330Z 32004KT CAVOK 12/10 Q1017
LFPG 040300Z 34003KT CAVOK 12/10 Q1017
LFPG 040230Z 35005KT CAVOK 13/11 Q1017
LFPG 040200Z 36005KT CAVOK 13/11 Q1017
LFPG 040130Z 34004KT CAVOK 13/10 Q1017
LFPG 040100Z 34003KT CAVOK 13/10 Q1018
LFPG 040030Z 33004KT CAVOK 13/10 Q1018
LFPG 040000Z 33005KT CAVOK 13/10 Q1017
LFPG 032330Z 33006KT CAVOK 14/10 Q1018
LFPG 032300Z 33006KT CAVOK 15/10 Q1017
LFPG 032230Z 33008KT CAVOK 15/10 Q1017
LFPG 032200Z 33008KT CAVOK 15/11 Q1017
LFPG 032130Z 32006KT CAVOK 15/10 Q1017
LFPG 032100Z 32005KT CAVOK 15/10 Q1017
LFPG 032030Z 33005KT 9999 FEW040 16/11 Q1016
LFPG 032000Z 33006KT 9999 FEW040TCU SCT100 16/11 Q1016
LFPG 031930Z 36006KT CAVOK 17/11 Q1016
LFPG 031900Z 01007KT CAVOK 18/10 Q1016
LFPG 031830Z 35010KT 9999 FEW041 SCT080 19/10 Q1015 BECMG NSC
LFPG 031800Z 36012KT 9999 FEW041 SCT073 19/10 Q1015 BECMG NSC
LFPG 031730Z 01016KT 9999 VCSH FEW041 FEW050CB BKN063 19/10 Q1015 BECMG NSC
LFPG 031700Z 36015KT 9999 VCSH SCT042 FEW050CB BKN054 19/12 Q1015 BECMG NSC
LFPG 031630Z 01014KT 9999 VCSH SCT042 FEW050CB BKN052 20/12 Q1014 TEMPO 32015G30KT SCT040CB
LFPG 031600Z 36010KT 310V030 9999 VCSH SCT052 FEW056CB BKN100 21/10 Q1014 TEMPO 32015G30KT SCT040CB
LFPG 031530Z 33014KT 9999 VCSH SCT052 FEW056CB BKN100 22/08 Q1014 TEMPO 32015G30KT SCT040CB
LFPG 031500Z 32014KT 290V350 9999 VCSH SCT054 FEW056CB BKN100 23/09 Q1014 TEMPO 32015G30KT SCT040CB
LFPG 031430Z 29009KT 9999 VCSH SCT052 FEW055CB BKN110 22/10 Q1014 TEMPO 32015G30KT SCT040CB
LFPG 031400Z 33007KT 310V010 9999 FEW043 FEW046CB BKN100 21/10 Q1014 TEMPO 32015G30KT SCT040CB
LFPG 031330Z 31010KT 270V350 9999 FEW044 FEW046TCU BKN100 21/10 Q1014 TEMPO 30015G25KT SCT040CB
LFPG 031300Z 30013KT 9999 FEW039 FEW043TCU BKN094 21/11 Q1015 TEMPO 30015G25KT SCT040CB
LFPG 031230Z 28007KT 250V310 9999 FEW042 FEW043TCU BKN094 19/13 Q1015 TEMPO 30015G25KT SCT040CB
LFPG 031200Z 29007KT 9999 -SHRA FEW040 FEW043TCU BKN063 17/14 Q1015 TEMPO 30015G25KT SCT040CB
LFPG 031149Z 29010KT 9999 -SHRA FEW042 FEW043TCU BKN056 17/13 Q1015 TEMPO 30015G25KT SCT040CB
LFPG 031130Z 28012G25KT 250V310 8000 -SHRA SCT035 FEW043CB SCT160 21/11 Q1015 TEMPO 30015G25KT SCT040CB
LFPG 031100Z 29011KT 9999 SCT039 FEW040TCU SCT160 19/11 Q1015 TEMPO 30015G25KT SCT040CB
LFPG 031030Z 28013KT 9999 SCT036 FEW037TCU SCT160 21/10 Q1015 NOSIG
LFPG 031000Z 29011KT 260V330 9999 BKN032 FEW036TCU SCT160 20/10 Q1015 NOSIG
LFPG 030930Z 28012KT 9999 BKN030 FEW036TCU SCT160 19/11 Q1015 NOSIG
LFPG 030900Z 29009KT 260V320 9999 SCT028 BKN260 19/11 Q1016 NOSIG
LFPG 030830Z 28009KT 9999 FEW020 SCT092 BKN260 18/11 Q1016 NOSIG
LFPG 030800Z 26009KT 230V300 9999 FEW019 SCT072 BKN260 17/12 Q1016 NOSIG
LFPG 030730Z 26010KT 9999 FEW026 BKN070 BKN260 17/11 Q1016 NOSIG
LFPG 030700Z 25008KT 9999 FEW024 BKN062 17/11 Q1016 NOSIG
LFPG 030630Z 25006KT CAVOK 16/11 Q1016 NOSIG
LFPG 030600Z 23004KT 210V270 CAVOK 16/10 Q1016 NOSIG
LFPG 030530Z 23003KT 9999 FEW023 BKN220 15/09 Q1016 NOSIG
LFPG 030500Z 29002KT 9999 SCT023 SCT063 BKN240 15/09 Q1016 NOSIG
LFPG 030430Z 29003KT 9999 FEW021 BKN048 BKN240 15/09 Q1016 NOSIG
LFPG 030400Z 28004KT CAVOK 15/09 Q1016 NOSIG
LFPG 030330Z 29004KT 9999 FEW048 BKN220 15/09 Q1016 NOSIG
LFPG 030300Z 27002KT CAVOK 15/09 Q1016 NOSIG
LFPG 030230Z 27003KT CAVOK 15/09 Q1016 NOSIG
LFPG 030200Z 27003KT CAVOK 15/09 Q1016 NOSIG
LFPG 030130Z 32003KT CAVOK 14/09 Q1016 NOSIG
LFPG 030100Z 32005KT CAVOK 15/09 Q1016 NOSIG
LFPG 030030Z 30002KT CAVOK 15/08 Q1017 NOSIG
LFPG 030000Z 02003KT CAVOK 15/08 Q1017 NOSIG
LFPG 022330Z 01004KT CAVOK 15/08 Q1017 NOSIG
LFPG 022300Z 36005KT CAVOK 16/08 Q1017 NOSIG
LFPG 022230Z 36005KT CAVOK 16/08 Q1017 NOSIG
LFPG 022200Z 35005KT CAVOK 17/09 Q1017 NOSIG
LFPG 022130Z 34006KT CAVOK 17/09 Q1017 NOSIG
LFPG 022100Z 34006KT CAVOK 18/09 Q1017 NOSIG
LFPG 022030Z 34006KT CAVOK 19/09 Q1017 NOSIG
LFPG 022000Z 32007KT CAVOK 19/08 Q1017 NOSIG
LFPG 021930Z 32007KT CAVOK 20/08 Q1017 NOSIG
LFPG 021900Z 32009KT CAVOK 21/08 Q1017 NOSIG
LFPG 021830Z 33012KT CAVOK 22/09 Q1017 NOSIG
LFPG 021800Z 33011KT CAVOK 22/08 Q1017 NOSIG
LFPG 021730Z 32010KT 290V350 CAVOK 24/08 Q1017 NOSIG
LFPG 021700Z 29012KT CAVOK 24/09 Q1016 NOSIG
LFPG 021630Z 30011KT CAVOK 24/09 Q1017 NOSIG
LFPG 021600Z 34011KT 310V010 CAVOK 24/09 Q1017 NOSIG
LFPG 021530Z 32010KT 270V360 CAVOK 24/09 Q1017 NOSIG
LFPG 021500Z 33012KT 300V360 CAVOK 24/09 Q1017 NOSIG
LFPG 021430Z 32012KT 280V350 CAVOK 24/09 Q1017 NOSIG
LFPG 021400Z 30007KT 210V350 CAVOK 24/09 Q1017 NOSIG
LFPG 021330Z 31010KT 260V340 CAVOK 24/09 Q1017 NOSIG
LFPG 021300Z 31010KT 250V360 CAVOK 24/09 Q1018 NOSIG
LFPG 021230Z 31009KT 240V360 9999 FEW041 BKN260 23/08 Q1018 NOSIG
LFPG 021200Z 32010KT 270V350 9999 FEW041 BKN260 22/09 Q1018 NOSIG
LFPG 021130Z 31010KT 250V360 9999 FEW041 BKN260 22/10 Q1018 NOSIG
LFPG 021100Z 33012KT 300V020 9999 SCT040 BKN260 22/10 Q1018 NOSIG